createdAt,value
2023-03-22T00:01:18.583Z,100481.59
2023-03-22T00:03:46.614Z,100481.13
2023-03-22T00:06:13.640Z,100481.34
2023-03-22T00:08:40.397Z,100473.69
2023-03-22T00:11:07.499Z,100471.03
2023-03-22T00:13:35.849Z,100462.78
2023-03-22T00:16:05.177Z,100457.25
2023-03-22T00:18:32.201Z,100466.22
2023-03-22T00:20:59.777Z,100458.44
2023-03-22T00:23:28.089Z,100450.13
2023-03-22T00:25:54.994Z,100447.97
2023-03-22T00:28:22.265Z,100450.34
2023-03-22T00:30:58.486Z,100452.59
2023-03-22T00:33:25.853Z,100455.41
2023-03-22T00:35:55.026Z,100441.06
2023-03-22T00:38:27.380Z,100448.34
2023-03-22T00:41:24.148Z,100447.06
2023-03-22T00:43:51.907Z,100449.06
2023-03-22T00:46:20.785Z,100451.38
2023-03-22T00:48:48.518Z,100442.00
2023-03-22T00:51:15.835Z,100452.03
2023-03-22T00:53:44.807Z,100446.31
2023-03-22T00:56:12.773Z,100438.59
2023-03-22T00:58:39.469Z,100445.00
2023-03-22T01:01:06.359Z,100448.72
2023-03-22T01:03:33.026Z,100437.06
2023-03-22T01:05:59.957Z,100441.75
2023-03-22T01:08:26.515Z,100441.88
2023-03-22T01:10:53.292Z,100441.66
2023-03-22T01:13:23.110Z,100445.06
2023-03-22T01:15:52.744Z,100440.94
2023-03-22T01:18:19.374Z,100442.56
2023-03-22T01:20:45.870Z,100440.44
2023-03-22T01:23:12.374Z,100441.31
2023-03-22T01:25:39.133Z,100432.22
2023-03-22T01:28:05.642Z,100435.53
2023-03-22T01:30:32.626Z,100431.13
2023-03-22T01:32:59.277Z,100434.81
2023-03-22T01:35:25.833Z,100430.97
2023-03-22T01:37:52.542Z,100431.28
2023-03-22T01:40:19.200Z,100431.28
2023-03-22T01:42:45.903Z,100430.16
2023-03-22T01:45:15.496Z,100433.22
2023-03-22T01:47:48.523Z,100432.69
2023-03-22T01:50:16.652Z,100429.69
2023-03-22T01:52:44.189Z,100437.44
2023-03-22T01:55:11.594Z,100433.84
2023-03-22T01:57:38.586Z,100436.41
2023-03-22T02:00:07.676Z,100426.44
2023-03-22T02:02:34.770Z,100427.56
2023-03-22T02:05:01.575Z,100432.28
2023-03-22T02:07:28.197Z,100435.03
2023-03-22T02:09:54.980Z,100435.03
2023-03-22T02:12:21.457Z,100434.72
2023-03-22T02:15:18.628Z,100429.75
2023-03-22T02:18:03.540Z,100430.00
2023-03-22T02:20:42.228Z,100432.13
2023-03-22T02:23:14.674Z,100431.91
2023-03-22T02:26:19.686Z,100436.06
2023-03-22T02:29:07.766Z,100434.94
2023-03-22T02:32:04.241Z,100425.34
2023-03-22T02:34:53.815Z,100436.44
2023-03-22T02:37:57.996Z,100435.03
2023-03-22T02:40:33.123Z,100434.84
2023-03-22T02:43:14.985Z,100435.09
2023-03-22T02:45:50.374Z,100439.84
2023-03-22T02:48:35.825Z,100433.78
2023-03-22T02:51:10.470Z,100441.50
2023-03-22T02:53:46.284Z,100442.97
2023-03-22T02:56:28.991Z,100445.50
2023-03-22T02:58:59.191Z,100448.28
2023-03-22T03:01:30.801Z,100448.84
2023-03-22T03:04:01.287Z,100446.13
2023-03-22T03:06:32.245Z,100452.50
2023-03-22T03:08:59.788Z,100445.63
2023-03-22T03:11:26.377Z,100450.09
2023-03-22T03:13:52.965Z,100452.28
2023-03-22T03:16:22.814Z,100457.28
2023-03-22T03:19:28.810Z,100457.56
2023-03-22T03:22:07.032Z,100458.91
2023-03-22T03:24:44.932Z,100455.09
2023-03-22T03:27:11.431Z,100457.84
2023-03-22T03:30:02.872Z,100463.94
2023-03-22T03:32:37.992Z,100469.72
2023-03-22T03:35:10.932Z,100468.31
2023-03-22T03:37:46.257Z,100472.19
2023-03-22T03:40:17.445Z,100468.88
2023-03-22T03:42:50.096Z,100475.22
2023-03-22T03:45:18.724Z,100468.06
2023-03-22T03:47:50.016Z,100467.22
2023-03-22T03:50:16.906Z,100475.22
2023-03-22T03:52:45.149Z,100477.16
2023-03-22T03:55:13.313Z,100473.31
2023-03-22T03:57:40.149Z,100472.75
2023-03-22T04:00:08.092Z,100473.00
2023-03-22T04:02:34.902Z,100469.13
2023-03-22T04:05:01.661Z,100470.81
2023-03-22T04:07:28.322Z,100468.66
2023-03-22T04:09:54.868Z,100475.59
2023-03-22T04:12:21.475Z,100479.97
2023-03-22T04:14:47.976Z,100480.00
2023-03-22T04:17:14.532Z,100485.81
2023-03-22T04:19:41.055Z,100492.16
2023-03-22T04:22:07.957Z,100484.16
2023-03-22T04:24:34.844Z,100478.69
2023-03-22T04:27:01.503Z,100475.63
2023-03-22T04:29:28.033Z,100484.22
2023-03-22T04:31:54.615Z,100482.56
2023-03-22T04:34:21.355Z,100482.56
2023-03-22T04:36:47.913Z,100484.50
2023-03-22T04:39:14.501Z,100483.94
2023-03-22T04:41:41.174Z,100482.81
2023-03-22T04:44:08.003Z,100487.78
2023-03-22T04:46:36.510Z,100485.34
2023-03-22T04:49:04.788Z,100506.31
2023-03-22T04:51:31.424Z,100498.56
2023-03-22T04:53:58.876Z,100496.88
2023-03-22T04:56:25.483Z,100498.25
2023-03-22T04:58:52.166Z,100501.56
2023-03-22T05:01:19.317Z,100509.03
2023-03-22T05:03:47.443Z,100508.16
2023-03-22T05:06:17.378Z,100506.78
2023-03-22T05:08:44.170Z,100509.22
2023-03-22T05:11:14.697Z,100521.88
2023-03-22T05:13:41.435Z,100510.75
2023-03-22T05:16:09.570Z,100523.09
2023-03-22T05:18:36.701Z,100524.97
2023-03-22T05:21:07.721Z,100517.03
2023-03-22T05:23:34.476Z,100528.84
2023-03-22T05:26:01.160Z,100524.13
2023-03-22T05:28:27.700Z,100515.56
2023-03-22T05:30:56.671Z,100513.88
2023-03-22T05:33:23.856Z,100517.84
2023-03-22T05:35:50.542Z,100519.03
2023-03-22T05:38:17.305Z,100520.41
2023-03-22T05:40:45.102Z,100524.00
2023-03-22T05:43:11.922Z,100531.19
2023-03-22T05:45:41.492Z,100535.75
2023-03-22T05:48:08.659Z,100531.72
2023-03-22T05:50:35.818Z,100540.91
2023-03-22T05:53:02.413Z,100544.22
2023-03-22T05:55:31.939Z,100551.00
2023-03-22T05:57:59.478Z,100549.34
2023-03-22T06:00:26.288Z,100544.25
2023-03-22T06:02:52.900Z,100552.09
2023-03-22T06:05:19.500Z,100551.03
2023-03-22T06:07:46.189Z,100553.09
2023-03-22T06:10:14.763Z,100565.78
2023-03-22T06:12:41.621Z,100562.63
2023-03-22T06:15:09.595Z,100563.88
2023-03-22T06:17:36.313Z,100560.97
2023-03-22T06:20:04.708Z,100566.41
2023-03-22T06:22:31.302Z,100554.75
2023-03-22T06:24:57.826Z,100563.03
2023-03-22T11:16:07.810Z,100544.84
2023-03-22T11:18:37.319Z,100548.66
2023-03-22T11:21:10.180Z,100543.31
2023-03-22T11:23:43.345Z,100547.16
2023-03-22T11:26:17.051Z,100536.34
2023-03-22T11:28:51.194Z,100534.75
2023-03-22T11:31:24.393Z,100528.34
2023-03-22T11:34:01.504Z,100508.19
2023-03-22T11:36:32.537Z,100510.44
2023-03-22T11:39:12.837Z,100505.91
2023-03-22T11:41:41.503Z,100496.13
2023-03-22T11:44:13.884Z,100502.22
2023-03-22T11:47:01.042Z,100506.38
2023-03-22T11:49:48.682Z,100487.75
2023-03-22T11:52:25.487Z,100485.16
2023-03-22T11:54:55.032Z,100488.72
2023-03-22T11:57:27.694Z,100496.06
2023-03-22T12:00:04.971Z,100494.72
2023-03-22T12:02:36.131Z,100493.09
2023-03-22T12:05:21.570Z,100493.66
2023-03-22T12:07:54.736Z,100486.88
2023-03-22T12:10:41.404Z,100485.81
2023-03-22T12:13:26.859Z,100494.56
2023-03-22T12:16:07.538Z,100478.09
2023-03-22T12:19:13.400Z,100477.28
2023-03-22T12:21:53.587Z,100464.59
2023-03-22T12:24:35.149Z,100466.16
2023-03-22T12:27:24.452Z,100471.34
2023-03-22T12:30:13.890Z,100471.47
2023-03-22T12:33:04.245Z,100468.97
2023-03-22T12:35:37.749Z,100466.47
2023-03-22T12:38:37.964Z,100464.97
2023-03-22T12:41:12.848Z,100466.59
2023-03-22T12:44:16.988Z,100464.50
2023-03-22T12:46:59.204Z,100467.31
2023-03-22T12:49:38.388Z,100466.69
2023-03-22T12:52:34.803Z,100461.50
2023-03-22T12:55:10.795Z,100457.97
2023-03-22T12:57:37.396Z,100460.72
2023-03-22T13:00:13.064Z,100462.03
2023-03-22T13:02:58.408Z,100460.78
2023-03-22T13:05:33.792Z,100460.44
2023-03-22T13:08:03.759Z,100447.75
2023-03-22T13:10:31.540Z,100451.19
2023-03-22T13:13:24.542Z,100441.69
2023-03-22T13:16:14.247Z,100444.84
2023-03-22T13:18:43.719Z,100454.03
2023-03-22T13:21:26.750Z,100456.72
2023-03-22T13:23:59.318Z,100450.22
2023-03-22T13:26:45.780Z,100447.88
2023-03-22T13:29:18.501Z,100447.06
2023-03-22T13:31:54.226Z,100445.47
2023-03-22T13:34:30.892Z,100452.19
2023-03-22T13:36:59.007Z,100441.88
2023-03-22T13:39:31.684Z,100447.19
2023-03-22T13:42:38.817Z,100443.91
2023-03-22T13:45:28.212Z,100446.13
2023-03-22T13:48:39.583Z,100441.81
2023-03-22T13:51:22.810Z,100447.66
2023-03-22T13:54:10.451Z,100442.13
2023-03-22T13:56:56.503Z,100434.09
2023-03-22T13:59:27.617Z,100435.28
2023-03-22T14:02:15.945Z,100445.31
2023-03-22T14:05:24.031Z,100436.00
2023-03-22T14:07:54.857Z,100447.56
2023-03-22T14:10:24.312Z,100447.34
2023-03-22T14:12:53.972Z,100451.81
2023-03-22T14:15:26.294Z,100446.78
2023-03-22T14:18:17.709Z,100456.00
2023-03-22T14:20:47.879Z,100449.44
